createdAt,value
2023-02-15T00:00:15.157Z,2.06
2023-02-15T00:01:15.089Z,2.06
2023-02-15T00:02:15.120Z,2.00
2023-02-15T00:03:15.092Z,1.94
2023-02-15T00:04:15.074Z,1.94
2023-02-15T00:05:15.033Z,1.99
2023-02-15T00:06:15.043Z,2.06
2023-02-15T00:07:15.007Z,2.06
2023-02-15T00:08:15.100Z,1.95
2023-02-15T00:09:15.112Z,1.92
2023-02-15T00:10:15.069Z,1.92
2023-02-15T00:11:14.962Z,1.81
2023-02-15T00:12:14.990Z,1.87
2023-02-15T00:13:14.939Z,1.84
2023-02-15T00:14:14.938Z,1.84
2023-02-15T00:15:14.913Z,1.73
2023-02-15T00:16:14.933Z,1.70
2023-02-15T00:17:14.915Z,1.73
2023-02-15T00:18:14.860Z,1.77
2023-02-15T00:19:14.874Z,1.76
2023-02-15T00:20:14.857Z,1.66
2023-02-15T00:21:14.814Z,1.77
2023-02-15T00:22:14.818Z,1.81
2023-02-15T00:23:14.779Z,1.85
2023-02-15T00:24:14.781Z,1.80
2023-02-15T00:25:14.764Z,1.85
2023-02-15T00:26:14.743Z,1.78
2023-02-15T00:27:14.759Z,1.85
2023-02-15T00:28:14.711Z,1.78
2023-02-15T00:29:14.691Z,1.77
2023-02-15T00:30:14.706Z,1.78
2023-02-15T00:31:14.764Z,1.84
2023-02-15T00:32:14.672Z,1.97
2023-02-15T00:33:14.662Z,1.87
2023-02-15T00:34:14.652Z,1.85
2023-02-15T00:35:14.629Z,1.92
2023-02-15T00:36:14.607Z,1.91
2023-02-15T00:37:14.564Z,1.97
2023-02-15T00:38:14.583Z,1.99
2023-02-15T00:39:14.538Z,1.97
2023-02-15T00:40:14.515Z,2.08
2023-02-15T00:41:14.526Z,2.14
2023-02-15T00:42:14.509Z,2.10
2023-02-15T00:43:14.510Z,2.10
2023-02-15T00:44:14.503Z,2.04
2023-02-15T00:45:16.547Z,2.13
2023-02-15T00:46:14.500Z,2.15
2023-02-15T00:47:14.414Z,2.13
2023-02-15T00:48:14.383Z,2.15
2023-02-15T00:49:14.373Z,2.07
2023-02-15T00:50:14.382Z,2.14
2023-02-15T00:51:14.388Z,2.02
2023-02-15T00:52:14.382Z,2.10
2023-02-15T00:53:14.354Z,1.99
2023-02-15T00:54:14.312Z,2.11
2023-02-15T00:55:14.313Z,2.07
2023-02-15T00:56:14.307Z,2.08
2023-02-15T00:57:14.294Z,2.02
2023-02-15T00:58:14.274Z,2.02
2023-02-15T00:59:14.266Z,2.00
2023-02-15T01:00:14.268Z,2.02
2023-02-15T01:01:14.271Z,2.08
2023-02-15T01:02:14.236Z,2.08
2023-02-15T01:03:14.179Z,2.14
2023-02-15T01:04:14.191Z,2.07
2023-02-15T01:05:14.141Z,2.04
2023-02-15T01:06:14.150Z,2.08
2023-02-15T01:07:14.135Z,2.02
2023-02-15T01:08:14.113Z,1.94
2023-02-15T01:09:14.139Z,1.97
2023-02-15T01:10:14.136Z,2.00
2023-02-15T01:11:14.098Z,2.00
2023-02-15T01:12:14.091Z,1.97
2023-02-15T01:13:14.087Z,2.02
2023-02-15T01:14:14.045Z,2.00
2023-02-15T01:15:14.040Z,1.92
2023-02-15T01:16:14.105Z,1.78
2023-02-15T01:17:13.971Z,1.84
2023-02-15T01:18:13.971Z,1.81
2023-02-15T01:19:13.953Z,1.76
2023-02-15T01:20:13.980Z,1.78
2023-02-15T01:21:13.980Z,1.77
2023-02-15T01:22:13.938Z,1.74
2023-02-15T01:23:13.933Z,1.81
2023-02-15T01:24:13.928Z,1.78
2023-02-15T01:25:13.890Z,1.70
2023-02-15T01:26:13.892Z,1.67
2023-02-15T01:27:13.860Z,1.74
2023-02-15T01:28:13.834Z,1.68
2023-02-15T01:29:13.833Z,1.59
2023-02-15T01:30:13.832Z,1.68
2023-02-15T01:31:13.956Z,1.63
2023-02-15T01:32:13.805Z,1.59
2023-02-15T01:33:13.784Z,1.63
2023-02-15T01:34:13.756Z,1.56
2023-02-15T01:35:13.733Z,1.55
2023-02-15T01:36:13.732Z,1.42
2023-02-15T01:37:13.711Z,1.52
2023-02-15T01:38:13.746Z,1.50
2023-02-15T01:39:13.708Z,1.42
2023-02-15T01:40:13.670Z,1.50
2023-02-15T01:41:13.625Z,1.34
2023-02-15T01:42:13.623Z,1.31
2023-02-15T01:43:13.582Z,1.28
2023-02-15T01:44:13.580Z,1.19
2023-02-15T01:45:13.576Z,1.17
2023-02-15T01:46:13.648Z,1.16
2023-02-15T01:47:13.558Z,1.20
2023-02-15T01:48:13.725Z,1.17
2023-02-15T01:49:13.509Z,1.13
2023-02-15T01:50:13.514Z,1.17
2023-02-15T01:51:13.491Z,1.22
2023-02-15T01:52:13.477Z,1.04
2023-02-15T01:53:13.446Z,0.99
2023-02-15T01:54:13.469Z,0.92
2023-02-15T01:55:13.466Z,0.81
2023-02-15T01:56:13.416Z,0.80
2023-02-15T01:57:13.403Z,0.76
2023-02-15T01:58:13.378Z,0.81
2023-02-15T01:59:13.380Z,0.81
2023-02-15T02:00:13.374Z,0.77
2023-02-15T02:01:13.369Z,0.77
2023-02-15T02:02:13.311Z,0.81
2023-02-15T02:03:13.309Z,0.83
2023-02-15T02:04:13.275Z,0.80
2023-02-15T02:05:13.315Z,0.81
2023-02-15T02:06:13.257Z,0.88
2023-02-15T02:07:13.247Z,0.92
2023-02-15T02:08:13.218Z,0.94
2023-02-15T02:09:13.202Z,1.02
2023-02-15T02:10:13.191Z,1.01
2023-02-15T02:11:13.198Z,1.05
2023-02-15T02:12:13.179Z,1.10
2023-02-15T02:13:13.162Z,1.05
2023-02-15T02:14:13.150Z,1.05
2023-02-15T02:15:13.118Z,0.91
2023-02-15T02:16:13.164Z,0.92
2023-02-15T02:17:13.078Z,0.91
2023-02-15T02:18:13.094Z,0.94
2023-02-15T02:19:13.040Z,0.92
2023-02-15T02:20:13.073Z,1.08
2023-02-15T02:21:13.050Z,1.02
2023-02-15T02:22:13.035Z,0.98
2023-02-15T02:23:13.034Z,0.92
2023-02-15T02:24:13.003Z,0.94
2023-02-15T02:25:12.976Z,0.91
2023-02-15T02:26:12.965Z,0.91
2023-02-15T02:27:12.958Z,0.80
2023-02-15T02:28:12.916Z,0.80
2023-02-15T02:29:12.900Z,0.83
2023-02-15T02:30:12.934Z,0.83
2023-02-15T02:31:13.090Z,0.77
2023-02-15T02:32:12.876Z,0.77
2023-02-15T02:33:12.861Z,0.70
2023-02-15T02:34:12.828Z,0.78
2023-02-15T02:35:12.841Z,0.77
2023-02-15T02:36:12.815Z,0.86
2023-02-15T02:37:12.766Z,0.94
2023-02-15T02:38:12.783Z,0.91
2023-02-15T02:39:12.792Z,0.96
2023-02-15T02:40:12.720Z,0.95
2023-02-15T02:41:12.730Z,0.95
2023-02-15T02:42:12.749Z,1.04
2023-02-15T02:43:12.753Z,1.02
2023-02-15T02:44:12.709Z,1.05
2023-02-15T02:45:12.683Z,1.05
2023-02-15T02:46:12.786Z,1.05
2023-02-15T02:47:12.650Z,0.92
2023-02-15T02:48:12.624Z,0.95
2023-02-15T02:49:12.643Z,0.78
2023-02-15T02:50:12.622Z,0.86
2023-02-15T02:51:12.591Z,0.92
2023-02-15T02:52:12.559Z,0.92
2023-02-15T02:53:12.566Z,0.91
2023-02-15T02:54:12.522Z,0.96
2023-02-15T02:55:12.539Z,0.96
2023-02-15T02:56:12.539Z,0.92
2023-02-15T02:57:12.483Z,0.88
2023-02-15T02:58:12.463Z,0.95
2023-02-15T02:59:12.481Z,0.80
2023-02-15T03:00:12.418Z,0.87
2023-02-15T03:01:12.398Z,0.81
2023-02-15T03:02:12.386Z,0.80
2023-02-15T03:03:12.449Z,0.84
2023-02-15T03:04:12.429Z,0.81
2023-02-15T03:05:12.365Z,0.80
2023-02-15T03:06:12.365Z,0.78
2023-02-15T03:07:12.375Z,0.77
2023-02-15T03:08:12.519Z,0.73
2023-02-15T03:09:12.307Z,0.66
2023-02-15T03:10:12.395Z,0.66
2023-02-15T03:11:12.308Z,0.65
2023-02-15T03:12:12.335Z,0.63
2023-02-15T03:13:12.265Z,0.65
2023-02-15T03:14:12.255Z,0.60
2023-02-15T03:15:12.259Z,0.58
2023-02-15T03:16:12.396Z,0.69
2023-02-15T03:17:12.171Z,0.65
2023-02-15T03:18:12.158Z,0.63
2023-02-15T03:19:12.186Z,0.73
2023-02-15T03:20:12.164Z,0.66
2023-02-15T03:21:12.120Z,0.60
2023-02-15T03:22:12.106Z,0.59
2023-02-15T03:23:12.080Z,0.68
2023-02-15T03:24:12.085Z,0.65
2023-02-15T03:25:12.068Z,0.60
2023-02-15T03:26:12.062Z,0.62
2023-02-15T03:27:12.046Z,0.56
2023-02-15T03:28:12.034Z,0.56
2023-02-15T03:29:12.033Z,0.50
2023-02-15T03:30:12.108Z,0.65
2023-02-15T03:31:12.194Z,0.60
2023-02-15T03:32:12.069Z,0.62
2023-02-15T03:33:11.959Z,0.62
2023-02-15T03:34:11.900Z,0.65
2023-02-15T03:35:11.919Z,0.62
2023-02-15T03:36:11.926Z,0.68
2023-02-15T03:37:11.915Z,0.65
2023-02-15T03:38:11.876Z,0.68
2023-02-15T03:39:11.859Z,0.63
2023-02-15T03:40:11.828Z,0.63
2023-02-15T03:41:11.829Z,0.65
2023-02-15T03:42:11.821Z,0.66
2023-02-15T03:43:11.773Z,0.62
2023-02-15T03:44:11.793Z,0.60
2023-02-15T03:45:11.750Z,0.60
2023-02-15T03:46:11.767Z,0.65
2023-02-15T03:47:11.781Z,0.65
2023-02-15T03:48:11.728Z,0.65
2023-02-15T03:49:11.696Z,0.65
2023-02-15T03:50:11.673Z,0.58
2023-02-15T03:51:11.664Z,0.56
2023-02-15T03:52:11.638Z,0.65
2023-02-15T03:53:11.624Z,0.60
2023-02-15T03:54:11.678Z,0.58
2023-02-15T03:55:11.591Z,0.65
2023-02-15T03:56:11.579Z,0.66
2023-02-15T03:57:11.567Z,0.69
2023-02-15T03:58:11.548Z,0.68
2023-02-15T03:59:11.535Z,0.65
2023-02-15T04:00:11.520Z,0.55
2023-02-15T04:01:11.537Z,0.60
2023-02-15T04:02:11.494Z,0.65
2023-02-15T04:03:11.545Z,0.58
2023-02-15T04:04:11.470Z,0.63
2023-02-15T04:05:11.430Z,0.59
2023-02-15T04:06:11.431Z,0.55
2023-02-15T04:07:11.528Z,0.63
2023-02-15T04:08:11.392Z,0.65
2023-02-15T04:09:11.378Z,0.65
2023-02-15T04:10:11.350Z,0.59
2023-02-15T04:11:11.385Z,0.65
2023-02-15T04:12:11.531Z,0.58
2023-02-15T04:13:11.372Z,0.59
2023-02-15T04:14:11.318Z,0.52
2023-02-15T04:15:11.290Z,0.56
2023-02-15T04:16:11.293Z,0.52
2023-02-15T04:17:11.245Z,0.41
2023-02-15T04:18:11.253Z,0.40
2023-02-15T04:19:11.255Z,0.34
2023-02-15T04:20:11.232Z,0.41
2023-02-15T04:21:11.229Z,0.36
2023-02-15T04:22:11.184Z,0.47
2023-02-15T04:23:11.183Z,0.39
2023-02-15T04:24:11.195Z,0.37
2023-02-15T04:25:11.124Z,0.39
2023-02-15T04:26:11.127Z,0.47
2023-02-15T04:27:11.108Z,0.43
2023-02-15T04:28:11.077Z,0.40
2023-02-15T04:29:11.068Z,0.46
2023-02-15T04:30:11.105Z,0.43
2023-02-15T04:31:11.209Z,0.46
2023-02-15T04:32:11.071Z,0.40
2023-02-15T04:33:10.989Z,0.39
2023-02-15T04:34:10.989Z,0.37
2023-02-15T04:35:10.994Z,0.34
2023-02-15T04:36:10.962Z,0.22
2023-02-15T04:37:10.945Z,0.26
2023-02-15T04:38:10.937Z,0.23
2023-02-15T04:39:10.914Z,0.16
2023-02-15T04:40:10.909Z,0.12
2023-02-15T04:41:10.886Z,0.05
2023-02-15T04:42:10.847Z,0.04
2023-02-15T04:43:10.851Z,0.00
2023-02-15T04:44:10.871Z,-0.07
2023-02-15T04:45:10.831Z,-0.14
2023-02-15T04:46:10.889Z,-0.17
2023-02-15T04:47:10.798Z,-0.20
2023-02-15T04:48:10.804Z,-0.20
2023-02-15T04:49:10.772Z,-0.21
2023-02-15T04:50:10.741Z,-0.15
2023-02-15T04:51:10.732Z,-0.20
2023-02-15T04:52:10.717Z,-0.15
2023-02-15T04:53:10.693Z,-0.18
2023-02-15T04:54:10.703Z,-0.28
2023-02-15T04:55:10.683Z,-0.31
2023-02-15T04:56:10.641Z,-0.15
2023-02-15T04:57:10.660Z,-0.18
2023-02-15T04:58:10.646Z,-0.15
2023-02-15T04:59:10.608Z,-0.17
2023-02-15T05:00:10.613Z,-0.14
2023-02-15T05:01:10.667Z,-0.03
2023-02-15T05:02:10.549Z,-0.07
2023-02-15T05:03:10.555Z,-0.13
2023-02-15T05:04:10.556Z,-0.08
2023-02-15T05:05:10.525Z,0.01
2023-02-15T05:06:10.506Z,-0.03
2023-02-15T05:07:10.513Z,0.03
2023-02-15T05:08:10.489Z,0.03
2023-02-15T05:09:10.449Z,0.01
2023-02-15T05:10:10.447Z,0.01
2023-02-15T05:11:10.422Z,-0.03
2023-02-15T05:12:10.387Z,-0.03
2023-02-15T05:13:10.371Z,-0.03
2023-02-15T05:14:10.389Z,-0.02
2023-02-15T05:15:10.367Z,-0.03
2023-02-15T05:16:10.379Z,-0.02
2023-02-15T05:17:10.319Z,-0.13
2023-02-15T05:18:10.388Z,-0.18
2023-02-15T05:19:10.292Z,-0.21
2023-02-15T05:20:10.289Z,-0.18
2023-02-15T05:21:10.291Z,-0.11
2023-02-15T05:22:10.265Z,-0.18
2023-02-15T05:23:10.247Z,-0.18
2023-02-15T05:24:10.401Z,-0.13
2023-02-15T05:25:10.217Z,-0.21
2023-02-15T05:26:10.204Z,-0.20
2023-02-15T05:27:10.160Z,-0.15
2023-02-15T05:28:10.179Z,-0.23
2023-02-15T05:29:10.124Z,-0.21
2023-02-15T05:30:10.303Z,-0.18
2023-02-15T05:31:10.462Z,-0.17
2023-02-15T05:32:10.214Z,-0.31
2023-02-15T05:33:10.071Z,-0.29
2023-02-15T05:34:10.049Z,-0.31
2023-02-15T05:35:10.058Z,-0.38
2023-02-15T05:36:10.035Z,-0.35
2023-02-15T05:37:10.002Z,-0.32
2023-02-15T05:38:10.002Z,-0.46
2023-02-15T05:39:09.992Z,-0.41
2023-02-15T05:40:09.945Z,-0.41
2023-02-15T05:41:09.964Z,-0.46
2023-02-15T05:42:09.922Z,-0.46
2023-02-15T05:43:09.901Z,-0.41
2023-02-15T05:44:09.889Z,-0.44
2023-02-15T05:45:09.900Z,-0.36
2023-02-15T05:46:09.945Z,-0.41
2023-02-15T05:47:09.861Z,-0.46
2023-02-15T05:48:09.854Z,-0.38
2023-02-15T05:49:09.826Z,-0.36
2023-02-15T05:50:09.784Z,-0.35
2023-02-15T05:51:09.795Z,-0.38
2023-02-15T05:52:09.751Z,-0.36
2023-02-15T05:53:10.152Z,-0.35
2023-02-15T05:54:09.927Z,-0.23
2023-02-15T05:55:09.757Z,-0.25
2023-02-15T05:56:09.748Z,-0.26
2023-02-15T05:57:09.725Z,-0.21
2023-02-15T05:58:09.674Z,-0.11
2023-02-15T05:59:09.664Z,-0.23
2023-02-15T06:00:09.650Z,-0.21
2023-02-15T06:01:09.616Z,-0.14
2023-02-15T06:02:09.691Z,-0.21
2023-02-15T06:03:09.639Z,-0.17
2023-02-15T06:04:09.566Z,-0.17
2023-02-15T06:05:09.569Z,-0.18
2023-02-15T06:06:09.578Z,-0.23
2023-02-15T06:07:09.532Z,-0.07
2023-02-15T06:08:09.556Z,-0.08
2023-02-15T06:09:09.503Z,0.03
2023-02-15T06:10:09.509Z,-0.02
2023-02-15T06:11:09.480Z,-0.03
2023-02-15T06:12:09.478Z,0.00
2023-02-15T06:13:09.424Z,0.00
2023-02-15T06:14:09.412Z,0.01
2023-02-15T06:15:09.385Z,0.00
2023-02-15T06:16:09.464Z,0.01
2023-02-15T06:17:09.358Z,-0.02
2023-02-15T06:18:09.332Z,0.01
2023-02-15T06:19:09.366Z,-0.02
2023-02-15T06:20:09.374Z,-0.07
2023-02-15T06:21:09.285Z,-0.03
2023-02-15T06:22:09.287Z,0.05
2023-02-15T06:23:09.287Z,0.00
2023-02-15T06:24:09.445Z,0.05
2023-02-15T06:25:09.218Z,0.04
2023-02-15T06:26:09.223Z,0.05
2023-02-15T06:27:09.304Z,0.03
2023-02-15T06:28:09.210Z,-0.03
2023-02-15T06:29:09.184Z,0.07
2023-02-15T06:30:09.198Z,0.03
2023-02-15T06:31:09.250Z,0.01
2023-02-15T06:32:09.122Z,-0.07
2023-02-15T06:33:09.102Z,0.01
2023-02-15T06:34:09.096Z,-0.02
2023-02-15T06:35:09.065Z,0.01
2023-02-15T06:36:09.041Z,-0.03
2023-02-15T06:37:09.080Z,-0.06
2023-02-15T06:38:09.033Z,-0.10
2023-02-15T06:39:09.002Z,-0.08
2023-02-15T06:40:08.987Z,-0.06
2023-02-15T06:41:08.964Z,-0.06
2023-02-15T06:42:09.015Z,-0.11
2023-02-15T06:43:08.993Z,-0.13
2023-02-15T06:44:08.920Z,-0.02
2023-02-15T06:45:08.905Z,-0.13
2023-02-15T06:46:08.943Z,-0.07
2023-02-15T06:47:08.878Z,-0.03
2023-02-15T06:48:08.849Z,-0.02
2023-02-15T06:49:08.889Z,0.01
2023-02-15T06:50:08.881Z,-0.02
2023-02-15T06:51:08.847Z,0.00
2023-02-15T06:52:08.851Z,0.00
2023-02-15T06:53:08.812Z,0.05
2023-02-15T06:54:08.754Z,-0.03
2023-02-15T06:55:08.795Z,0.04
2023-02-15T06:56:08.749Z,0.01
2023-02-15T06:57:08.784Z,-0.02
2023-02-15T06:58:08.734Z,0.01
2023-02-15T06:59:08.775Z,0.00
2023-02-15T07:00:08.819Z,-0.07
2023-02-15T07:01:08.717Z,-0.11
2023-02-15T07:02:08.780Z,-0.06
2023-02-15T07:03:08.631Z,-0.13
2023-02-15T07:04:08.611Z,-0.21
2023-02-15T07:05:08.717Z,-0.17
2023-02-15T07:06:08.602Z,-0.14
2023-02-15T07:07:08.550Z,-0.17
2023-02-15T07:08:08.531Z,-0.08
2023-02-15T07:09:08.537Z,-0.15
2023-02-15T07:10:08.536Z,-0.15
2023-02-15T07:11:08.483Z,-0.17
2023-02-15T07:12:08.468Z,-0.15
2023-02-15T07:13:08.557Z,-0.18
2023-02-15T07:14:08.438Z,-0.18
2023-02-15T07:15:08.451Z,-0.14
2023-02-15T07:16:08.467Z,-0.14
2023-02-15T07:17:18.283Z,-0.20
2023-02-15T07:18:08.433Z,-0.17
2023-02-15T07:19:08.388Z,-0.18
2023-02-15T07:20:08.353Z,-0.20
2023-02-15T07:21:08.345Z,-0.20
2023-02-15T07:22:08.310Z,-0.11
2023-02-15T07:23:08.317Z,-0.28
2023-02-15T07:24:08.274Z,-0.29
2023-02-15T07:25:08.263Z,-0.31
2023-02-15T07:26:08.291Z,-0.25
2023-02-15T07:27:08.227Z,-0.26
2023-02-15T07:28:08.215Z,-0.25
2023-02-15T07:29:08.198Z,-0.26
2023-02-15T07:30:08.261Z,-0.32
2023-02-15T07:31:08.281Z,-0.29
2023-02-15T07:32:08.199Z,-0.25
2023-02-15T07:33:08.152Z,-0.36
2023-02-15T07:34:08.120Z,-0.43
2023-02-15T07:35:08.143Z,-0.35
2023-02-15T07:36:08.146Z,-0.35
2023-02-15T07:37:08.062Z,-0.31
2023-02-15T07:38:08.065Z,-0.26
2023-02-15T07:39:08.033Z,-0.25
2023-02-15T07:40:08.027Z,-0.13
2023-02-15T07:41:07.996Z,-0.14
2023-02-15T07:42:07.990Z,-0.13
2023-02-15T07:43:07.989Z,-0.17
2023-02-15T07:44:07.968Z,-0.18
2023-02-15T07:45:07.974Z,-0.08
2023-02-15T07:46:07.928Z,-0.10
2023-02-15T07:47:07.941Z,-0.07
2023-02-15T07:48:07.968Z,-0.02
2023-02-15T07:49:07.898Z,-0.03
2023-02-15T07:50:07.860Z,-0.03
2023-02-15T07:51:07.887Z,0.00
2023-02-15T07:52:07.864Z,0.01
2023-02-15T07:53:07.876Z,0.00
2023-02-15T07:54:07.800Z,0.04
2023-02-15T07:55:07.797Z,0.05
2023-02-15T07:56:07.807Z,0.21
2023-02-15T07:57:07.780Z,0.22
2023-02-15T07:58:07.738Z,0.29
2023-02-15T07:59:07.732Z,0.43
2023-02-15T08:00:07.727Z,0.55
2023-02-15T08:01:07.696Z,0.60
2023-02-15T08:02:07.903Z,0.70
2023-02-15T08:03:07.776Z,0.88
2023-02-15T08:04:07.657Z,1.05
2023-02-15T08:05:07.621Z,1.30
2023-02-15T08:06:07.608Z,1.30
2023-02-15T08:07:07.661Z,1.89
2023-02-15T08:08:07.614Z,2.18
2023-02-15T08:09:07.593Z,2.67
2023-02-15T08:10:07.545Z,3.23
2023-02-15T08:11:07.529Z,3.81
2023-02-15T08:12:07.536Z,4.01
2023-02-15T08:13:07.494Z,4.24
2023-02-15T08:14:07.487Z,4.58
2023-02-15T08:15:07.480Z,4.38
2023-02-15T08:16:07.550Z,4.56
2023-02-15T08:17:07.724Z,4.92
2023-02-15T08:18:07.435Z,5.07
2023-02-15T08:19:07.448Z,5.17
2023-02-15T08:20:07.410Z,5.39
2023-02-15T08:21:07.448Z,5.47
2023-02-15T08:22:07.391Z,5.46
2023-02-15T08:23:07.402Z,5.56
2023-02-15T08:24:07.385Z,5.65
2023-02-15T08:25:07.337Z,5.82
2023-02-15T08:26:07.347Z,6.22
2023-02-15T08:27:07.319Z,6.52
2023-02-15T08:28:07.325Z,6.93
2023-02-15T08:29:07.319Z,7.17
2023-02-15T08:30:07.336Z,7.66
2023-02-15T08:31:07.403Z,8.31
2023-02-15T08:32:07.387Z,8.74
2023-02-15T08:33:07.275Z,9.06
2023-02-15T08:34:07.276Z,8.44
2023-02-15T08:35:07.304Z,8.46
2023-02-15T08:36:07.220Z,8.67
2023-02-15T08:37:07.329Z,8.03
2023-02-15T08:38:07.271Z,8.13
2023-02-15T08:39:07.204Z,8.38
2023-02-15T08:40:07.224Z,8.78
2023-02-15T08:41:07.212Z,9.28
2023-02-15T08:42:07.199Z,9.68
2023-02-15T08:43:07.201Z,10.16
2023-02-15T08:44:07.173Z,10.48
2023-02-15T08:45:07.178Z,10.78
2023-02-15T08:46:07.206Z,9.94
2023-02-15T08:47:07.177Z,10.15
2023-02-15T08:48:07.132Z,10.46
2023-02-15T08:49:07.150Z,10.12
2023-02-15T08:50:07.146Z,10.10
2023-02-15T08:51:07.332Z,9.99
2023-02-15T08:52:07.125Z,10.34
2023-02-15T08:53:07.077Z,10.53
2023-02-15T08:54:07.104Z,10.59
2023-02-15T08:55:07.116Z,10.94
2023-02-15T08:56:07.123Z,11.27
2023-02-15T08:57:07.099Z,11.50
2023-02-15T08:58:07.112Z,11.91
2023-02-15T08:59:07.054Z,11.95
2023-02-15T09:00:07.040Z,11.86
2023-02-15T09:01:07.292Z,11.88
2023-02-15T09:02:07.069Z,12.21
2023-02-15T09:03:07.019Z,12.31
2023-02-15T09:04:07.035Z,12.78
2023-02-15T09:05:07.022Z,12.76
2023-02-15T09:06:07.049Z,12.82
2023-02-15T09:07:07.017Z,13.03
2023-02-15T09:08:07.013Z,13.03
2023-02-15T09:09:07.003Z,12.86
2023-02-15T09:10:07.029Z,12.62
2023-02-15T09:11:07.000Z,12.67
2023-02-15T09:12:06.983Z,12.67
2023-02-15T09:13:06.976Z,12.40
2023-02-15T09:14:06.952Z,12.39
2023-02-15T09:15:06.946Z,12.10
2023-02-15T09:16:07.022Z,12.06
2023-02-15T09:17:06.950Z,12.10
2023-02-15T09:18:06.944Z,11.97
2023-02-15T09:19:06.958Z,11.81
2023-02-15T09:20:06.948Z,12.07
2023-02-15T09:21:06.928Z,12.54
2023-02-15T09:22:06.959Z,12.86
2023-02-15T09:23:07.697Z,12.68
2023-02-15T09:24:06.944Z,11.69
2023-02-15T09:25:06.893Z,11.40
2023-02-15T09:26:06.910Z,11.88
2023-02-15T09:27:06.882Z,11.81
2023-02-15T09:28:06.915Z,11.94
2023-02-15T09:29:06.918Z,12.12
2023-02-15T09:30:06.979Z,12.32
2023-02-15T09:31:06.942Z,12.42
2023-02-15T09:32:06.939Z,12.06
2023-02-15T09:33:06.899Z,12.25
2023-02-15T09:34:06.887Z,12.31
2023-02-15T09:35:06.883Z,12.06
2023-02-15T09:36:06.853Z,12.31
2023-02-15T09:37:06.879Z,12.40
2023-02-15T09:38:06.874Z,12.03
2023-02-15T09:39:06.959Z,11.72
2023-02-15T09:40:06.891Z,11.52
2023-02-15T09:41:06.844Z,11.17
2023-02-15T09:42:06.863Z,11.29
2023-02-15T09:43:06.889Z,10.79
2023-02-15T09:44:06.897Z,10.38
2023-02-15T09:45:07.070Z,10.41
2023-02-15T09:46:06.890Z,10.67
2023-02-15T09:47:06.842Z,10.46
2023-02-15T09:48:06.844Z,10.16
2023-02-15T09:49:06.825Z,10.30
2023-02-15T09:50:06.918Z,10.33
2023-02-15T09:51:06.849Z,10.44
2023-02-15T09:52:06.873Z,10.64
2023-02-15T09:53:06.817Z,10.90
2023-02-15T09:54:06.825Z,11.11
2023-02-15T09:55:06.840Z,11.08
2023-02-15T09:56:06.807Z,11.23
2023-02-15T09:57:06.813Z,11.32
2023-02-15T09:58:06.828Z,11.00
2023-02-15T09:59:06.847Z,10.30
2023-02-15T10:00:06.808Z,9.98
2023-02-15T10:01:06.884Z,9.66
2023-02-15T10:02:06.791Z,9.89
2023-02-15T10:03:06.810Z,9.66
2023-02-15T10:04:06.843Z,9.50
2023-02-15T10:05:06.781Z,9.36
2023-02-15T10:06:06.762Z,9.32
2023-02-15T10:07:06.768Z,9.40
2023-02-15T10:08:06.764Z,9.16
2023-02-15T10:09:06.752Z,9.23
2023-02-15T10:10:06.764Z,9.22
2023-02-15T10:11:06.842Z,9.23
2023-02-15T10:12:06.753Z,9.23
2023-02-15T10:13:06.745Z,9.39
2023-02-15T10:14:06.736Z,9.56
2023-02-15T10:15:06.731Z,9.66
2023-02-15T10:16:06.739Z,9.82
2023-02-15T10:17:06.791Z,9.92
2023-02-15T10:18:06.765Z,9.61
2023-02-15T10:19:06.724Z,9.59
2023-02-15T10:20:06.727Z,9.25
2023-02-15T10:21:06.747Z,9.40
2023-02-15T10:22:06.730Z,9.59
2023-02-15T10:23:06.703Z,9.79
2023-02-15T10:24:06.765Z,10.10
2023-02-15T10:25:06.727Z,10.30
2023-02-15T10:26:06.733Z,10.48
2023-02-15T10:27:06.727Z,10.68
2023-02-15T10:28:06.708Z,10.84
2023-02-15T10:29:06.695Z,10.64
2023-02-15T10:30:06.754Z,10.33
2023-02-15T10:31:07.088Z,10.49
2023-02-15T10:32:06.842Z,10.82
2023-02-15T10:33:06.691Z,11.02
2023-02-15T10:34:06.715Z,11.29
2023-02-15T10:35:06.717Z,11.50
2023-02-15T10:36:06.891Z,11.43
2023-02-15T10:37:06.678Z,11.44
2023-02-15T10:38:06.696Z,11.47
2023-02-15T10:39:06.622Z,11.43
2023-02-15T10:40:06.647Z,11.59
2023-02-15T10:41:06.639Z,11.66
2023-02-15T10:42:06.659Z,11.50
2023-02-15T10:43:06.643Z,11.36
2023-02-15T10:44:06.623Z,11.44
2023-02-15T10:45:06.607Z,11.55
2023-02-15T10:46:06.640Z,11.77
2023-02-15T10:47:06.580Z,11.91
2023-02-15T10:48:06.597Z,11.88
2023-02-15T10:49:06.549Z,11.87
2023-02-15T10:50:06.589Z,11.80
2023-02-15T10:51:06.598Z,11.78
2023-02-15T10:52:06.532Z,11.94
2023-02-15T10:53:06.548Z,11.73
2023-02-15T10:54:06.565Z,11.68
2023-02-15T10:55:06.550Z,11.23
2023-02-15T10:56:06.504Z,10.74
2023-02-15T10:57:06.507Z,10.94
2023-02-15T10:58:06.506Z,11.00
2023-02-15T10:59:06.510Z,11.19
2023-02-15T11:00:06.498Z,11.35
2023-02-15T11:01:06.572Z,11.40
2023-02-15T11:02:06.488Z,11.50
2023-02-15T11:03:06.458Z,11.17
2023-02-15T11:04:06.451Z,11.26
2023-02-15T11:05:06.505Z,11.33
2023-02-15T11:06:06.445Z,11.37
2023-02-15T11:07:06.446Z,11.44
2023-02-15T11:08:06.448Z,11.47
2023-02-15T11:09:06.423Z,11.62
2023-02-15T11:10:06.389Z,11.72
2023-02-15T11:11:06.390Z,11.68
2023-02-15T11:12:06.400Z,11.77
2023-02-15T11:13:06.405Z,11.60
2023-02-15T11:14:06.377Z,11.47
2023-02-15T11:15:06.374Z,11.37
2023-02-15T11:16:06.401Z,11.19
2023-02-15T11:17:06.324Z,11.41
2023-02-15T11:18:06.366Z,11.47
2023-02-15T11:19:06.359Z,11.68
2023-02-15T11:20:06.327Z,11.72
2023-02-15T11:21:06.335Z,11.45
2023-02-15T11:22:06.321Z,11.30
2023-02-15T11:23:06.276Z,11.27
2023-02-15T11:24:06.273Z,11.45
2023-02-15T11:25:06.270Z,11.35
2023-02-15T11:26:06.290Z,11.33
2023-02-15T11:27:06.315Z,11.48
2023-02-15T11:28:06.240Z,11.45
2023-02-15T11:29:06.365Z,11.66
2023-02-15T11:30:06.270Z,11.69
2023-02-15T11:31:06.683Z,11.33
2023-02-15T11:32:06.367Z,11.40
2023-02-15T11:33:07.185Z,11.50
2023-02-15T11:34:06.197Z,11.50
2023-02-15T11:35:06.190Z,11.59
2023-02-15T11:36:06.188Z,11.69
2023-02-15T11:37:06.172Z,11.70
2023-02-15T11:38:06.182Z,11.75
2023-02-15T11:39:06.180Z,11.78
2023-02-15T11:40:06.158Z,11.87
2023-02-15T11:41:06.246Z,11.88
2023-02-15T11:42:06.103Z,11.94
2023-02-15T11:43:06.147Z,11.78
2023-02-15T11:44:06.119Z,11.48
2023-02-15T11:45:06.076Z,11.47
2023-02-15T11:46:06.322Z,11.57
2023-02-15T11:47:06.151Z,11.84
2023-02-15T11:48:06.060Z,12.10
2023-02-15T11:49:06.061Z,12.12
2023-02-15T11:50:06.091Z,12.29
2023-02-15T11:51:06.079Z,12.32
2023-02-15T11:52:06.085Z,12.40
2023-02-15T11:53:06.037Z,12.47
2023-02-15T11:54:06.018Z,12.43
2023-02-15T11:55:05.984Z,12.37
2023-02-15T11:56:06.001Z,11.86
2023-02-15T11:57:05.987Z,11.80
2023-02-15T11:58:05.985Z,11.99
2023-02-15T11:59:05.966Z,12.10
2023-02-15T12:00:05.966Z,12.24
2023-02-15T12:01:05.962Z,12.35
2023-02-15T12:02:05.967Z,12.32
2023-02-15T12:03:06.051Z,12.49
2023-02-15T12:04:05.979Z,12.67
2023-02-15T12:05:05.939Z,12.91
2023-02-15T12:06:05.909Z,12.86
2023-02-15T12:07:05.920Z,12.75
2023-02-15T12:08:05.874Z,12.75
2023-02-15T12:09:05.889Z,12.76
2023-02-15T12:10:05.877Z,12.60
2023-02-15T12:11:05.900Z,12.50
2023-02-15T12:12:05.842Z,12.57
2023-02-15T12:13:05.846Z,12.60
2023-02-15T12:14:05.840Z,12.50
2023-02-15T12:15:05.832Z,12.61
2023-02-15T12:16:05.890Z,12.67
2023-02-15T12:17:05.818Z,12.72
2023-02-15T12:18:05.827Z,12.83
2023-02-15T12:19:05.812Z,12.87
2023-02-15T12:20:05.776Z,12.93
2023-02-15T12:21:05.777Z,12.86
2023-02-15T12:22:05.752Z,13.01
2023-02-15T12:23:05.751Z,13.15
2023-02-15T12:24:05.739Z,13.18
2023-02-15T12:25:05.730Z,12.97
2023-02-15T12:26:05.737Z,12.83
2023-02-15T12:27:05.726Z,12.70
2023-02-15T12:28:05.729Z,12.62
2023-02-15T12:29:05.737Z,12.73
2023-02-15T12:30:05.733Z,12.76
2023-02-15T12:31:06.005Z,12.83
2023-02-15T12:32:05.865Z,13.09
2023-02-15T12:33:05.697Z,13.11
2023-02-15T12:34:05.665Z,13.05
2023-02-15T12:35:05.691Z,13.04
2023-02-15T12:36:05.699Z,13.22
2023-02-15T12:37:05.658Z,13.38
2023-02-15T12:38:05.646Z,13.31
2023-02-15T12:39:05.646Z,13.35
2023-02-15T12:40:05.643Z,13.54
2023-02-15T12:41:05.622Z,13.50
2023-02-15T12:42:05.589Z,13.47
2023-02-15T12:43:09.132Z,13.41
2023-02-15T12:44:05.622Z,13.44
2023-02-15T12:45:05.577Z,13.52
2023-02-15T12:46:05.563Z,13.41
2023-02-15T12:47:05.591Z,13.53
2023-02-15T12:48:05.584Z,13.54
2023-02-15T12:49:05.559Z,13.50
2023-02-15T12:50:05.607Z,13.54
2023-02-15T12:51:05.551Z,13.57
2023-02-15T12:52:05.541Z,13.54
2023-02-15T12:53:05.516Z,13.60
2023-02-15T12:54:05.509Z,13.79
2023-02-15T12:55:05.544Z,13.74
2023-02-15T12:56:05.499Z,13.72
2023-02-15T12:57:05.521Z,13.86
2023-02-15T12:58:05.504Z,13.81
2023-02-15T12:59:05.492Z,13.79
2023-02-15T13:00:05.471Z,13.87
2023-02-15T13:01:05.708Z,13.97
2023-02-15T13:02:05.524Z,14.08
2023-02-15T13:03:05.434Z,13.99
2023-02-15T13:04:05.485Z,14.03
2023-02-15T13:05:05.437Z,14.00